createdAt,value
2018-03-19T00:00:44.095Z,-2.64
2018-03-19T00:01:44.010Z,-2.53
2018-03-19T00:02:43.922Z,-2.55
2018-03-19T00:03:43.837Z,-2.52
2018-03-19T00:04:43.750Z,-2.49
2018-03-19T00:05:43.660Z,-2.61
2018-03-19T00:06:43.575Z,-2.64
2018-03-19T00:07:43.488Z,-2.67
2018-03-19T00:08:43.397Z,-2.56
2018-03-19T00:09:43.312Z,-2.71
2018-03-19T00:10:43.226Z,-2.58
2018-03-19T00:11:43.133Z,-2.68
2018-03-19T00:12:43.047Z,-2.68
2018-03-19T00:13:42.960Z,-2.68
2018-03-19T00:14:42.873Z,-2.63
2018-03-19T00:15:42.785Z,-2.70
2018-03-19T00:16:42.698Z,-2.60
2018-03-19T00:17:42.610Z,-2.71
2018-03-19T00:18:42.531Z,-2.71
2018-03-19T00:19:42.434Z,-2.58
2018-03-19T00:20:42.348Z,-2.64
2018-03-19T00:21:42.264Z,-2.56
2018-03-19T00:22:42.177Z,-2.61
2018-03-19T00:23:42.086Z,-2.61
2018-03-19T00:24:41.999Z,-2.68
2018-03-19T00:25:41.916Z,-2.71
2018-03-19T00:26:41.824Z,-2.67
2018-03-19T00:27:41.749Z,-2.68
2018-03-19T00:28:41.665Z,-2.68
2018-03-19T00:29:41.577Z,-2.68
2018-03-19T00:30:41.491Z,-2.71
2018-03-19T00:31:41.398Z,-2.70
2018-03-19T00:32:41.312Z,-2.68
2018-03-19T00:33:41.237Z,-2.70
2018-03-19T00:34:41.147Z,-2.71
2018-03-19T00:35:41.053Z,-2.66
2018-03-19T00:36:40.967Z,-2.74
2018-03-19T00:37:40.874Z,-2.71
2018-03-19T00:38:40.788Z,-2.70
2018-03-19T00:39:40.705Z,-2.73
2018-03-19T00:40:40.616Z,-2.74
2018-03-19T00:41:40.538Z,-2.79
2018-03-19T00:42:40.438Z,-2.78
2018-03-19T00:43:40.355Z,-2.78
2018-03-19T00:44:40.265Z,-2.81
2018-03-19T00:45:40.178Z,-2.79
2018-03-19T00:46:40.088Z,-2.79
2018-03-19T00:47:40.001Z,-2.84
2018-03-19T00:48:39.915Z,-2.82
2018-03-19T00:49:39.838Z,-2.78
2018-03-19T00:50:39.742Z,-2.82
2018-03-19T00:51:39.652Z,-2.85
2018-03-19T00:52:39.572Z,-2.86
2018-03-19T00:53:39.476Z,-2.82
2018-03-19T00:54:39.389Z,-2.86
2018-03-19T00:55:39.316Z,-2.81
2018-03-19T00:56:39.219Z,-2.85
2018-03-19T00:57:39.139Z,-2.85
2018-03-19T00:58:39.047Z,-2.86
2018-03-19T00:59:38.955Z,-2.89
2018-03-19T01:00:38.867Z,-2.94
2018-03-19T01:01:38.779Z,-2.94
2018-03-19T01:02:38.692Z,-2.91
2018-03-19T01:03:38.602Z,-2.96
2018-03-19T01:04:38.517Z,-2.79
2018-03-19T01:05:38.428Z,-2.88
2018-03-19T01:06:38.341Z,-2.89
2018-03-19T01:07:38.258Z,-2.88
2018-03-19T01:08:38.177Z,-2.89
2018-03-19T01:09:38.090Z,-2.92
2018-03-19T01:10:38.008Z,-2.92
2018-03-19T01:11:37.925Z,-2.92
2018-03-19T01:12:37.832Z,-2.99
2018-03-19T01:13:37.742Z,-2.89
2018-03-19T01:14:37.654Z,-2.97
2018-03-19T01:15:37.570Z,-2.91
2018-03-19T01:16:37.482Z,-2.99
2018-03-19T01:17:37.396Z,-2.94
2018-03-19T01:18:37.307Z,-2.91
2018-03-19T01:19:37.218Z,-2.97
2018-03-19T01:20:37.129Z,-2.99
2018-03-19T01:21:37.042Z,-2.92
2018-03-19T01:22:36.958Z,-2.91
2018-03-19T01:23:36.871Z,-2.91
2018-03-19T01:24:36.779Z,-2.92
2018-03-19T01:25:36.693Z,-2.92
2018-03-19T01:26:36.606Z,-3.03
2018-03-19T01:27:36.518Z,-3.02
2018-03-19T01:28:36.431Z,-3.00
2018-03-19T01:29:36.344Z,-2.99
2018-03-19T01:30:36.256Z,-3.09
2018-03-19T01:31:36.173Z,-3.00
2018-03-19T01:32:36.096Z,-2.99
2018-03-19T01:33:35.994Z,-3.09
2018-03-19T01:34:35.916Z,-3.07
2018-03-19T01:35:35.819Z,-3.12
2018-03-19T01:36:35.732Z,-3.12
2018-03-19T01:37:35.643Z,-3.12
2018-03-19T01:38:35.555Z,-3.15
2018-03-19T01:39:35.470Z,-3.14
2018-03-19T01:40:35.394Z,-3.17
2018-03-19T01:41:35.294Z,-3.14
2018-03-19T01:42:35.209Z,-3.09
2018-03-19T01:43:35.120Z,-3.20
2018-03-19T01:44:35.038Z,-3.28
2018-03-19T01:45:34.948Z,-3.14
2018-03-19T01:46:34.861Z,-3.17
2018-03-19T01:47:34.770Z,-3.18
2018-03-19T01:48:34.701Z,-3.25
2018-03-19T01:49:34.595Z,-3.20
2018-03-19T01:50:34.507Z,-3.20
2018-03-19T01:51:34.421Z,-3.28
2018-03-19T01:52:34.336Z,-3.23
2018-03-19T01:53:34.246Z,-3.21
2018-03-19T01:54:34.163Z,-3.20
2018-03-19T01:55:34.074Z,-3.24
2018-03-19T01:56:33.990Z,-3.28
2018-03-19T01:57:33.899Z,-3.41
2018-03-19T01:58:33.807Z,-3.38
2018-03-19T01:59:33.725Z,-3.36
2018-03-19T02:00:33.634Z,-3.39
2018-03-19T02:01:33.552Z,-3.41
2018-03-19T02:02:33.462Z,-3.36
2018-03-19T02:03:33.380Z,-3.35
2018-03-19T02:04:33.285Z,-3.39
2018-03-19T02:05:33.197Z,-3.43
2018-03-19T02:06:33.117Z,-3.45
2018-03-19T02:07:33.024Z,-3.38
2018-03-19T02:08:32.946Z,-3.36
2018-03-19T02:09:32.850Z,-3.38
2018-03-19T02:10:32.764Z,-3.38
2018-03-19T02:11:32.673Z,-3.45
2018-03-19T02:12:32.584Z,-3.45
2018-03-19T02:13:32.502Z,-3.45
2018-03-19T02:14:32.414Z,-3.56
2018-03-19T02:15:32.327Z,-3.53
2018-03-19T02:16:32.236Z,-3.48
2018-03-19T02:17:32.148Z,-3.41
2018-03-19T02:18:32.059Z,-3.53
2018-03-19T02:19:31.977Z,-3.54
2018-03-19T02:20:31.890Z,-3.53
2018-03-19T02:21:31.802Z,-3.49
2018-03-19T02:22:31.712Z,-3.48
2018-03-19T02:23:31.624Z,-3.54
2018-03-19T02:24:31.539Z,-3.43
2018-03-19T02:25:31.453Z,-3.48
2018-03-19T02:26:31.362Z,-3.56
2018-03-19T02:27:31.276Z,-3.48
2018-03-19T02:28:31.190Z,-3.52
2018-03-19T02:29:31.106Z,-3.60
2018-03-19T02:30:31.012Z,-3.54
2018-03-19T02:31:30.928Z,-3.48
2018-03-19T02:32:30.838Z,-3.48
2018-03-19T02:33:30.753Z,-3.45
2018-03-19T02:34:30.675Z,-3.53
2018-03-19T02:35:30.576Z,-3.59
2018-03-19T02:36:30.488Z,-3.57
2018-03-19T02:37:30.401Z,-3.46
2018-03-19T02:38:30.322Z,-3.60
2018-03-19T02:39:30.226Z,-3.64
2018-03-19T02:40:30.143Z,-3.57
2018-03-19T02:41:30.054Z,-3.60
2018-03-19T02:42:29.965Z,-3.60
2018-03-19T02:43:29.876Z,-3.57
2018-03-19T02:44:29.793Z,-3.63
2018-03-19T02:45:29.705Z,-3.62
2018-03-19T02:46:29.618Z,-3.59
2018-03-19T02:47:29.528Z,-3.60
2018-03-19T02:48:29.440Z,-3.64
2018-03-19T02:49:29.353Z,-3.63
2018-03-19T02:50:29.264Z,-3.62
2018-03-19T02:51:29.180Z,-3.62
2018-03-19T02:52:29.093Z,-3.63
2018-03-19T02:53:29.004Z,-3.63
2018-03-19T02:54:28.915Z,-3.59
2018-03-19T02:55:28.831Z,-3.63
2018-03-19T02:56:28.741Z,-3.76
2018-03-19T02:57:28.657Z,-3.67
2018-03-19T02:58:28.579Z,-3.72
2018-03-19T02:59:28.477Z,-3.72
2018-03-19T03:00:28.408Z,-3.85
2018-03-19T03:01:28.307Z,-3.79
2018-03-19T03:02:28.220Z,-3.71
2018-03-19T03:03:28.128Z,-3.71
2018-03-19T03:04:28.049Z,-3.81
2018-03-19T03:05:27.943Z,-3.67
2018-03-19T03:06:27.855Z,-3.64
2018-03-19T03:07:27.767Z,-3.71
2018-03-19T03:08:27.680Z,-3.71
2018-03-19T03:09:27.593Z,-3.83
2018-03-19T03:10:27.504Z,-3.82
2018-03-19T03:11:27.430Z,-3.75
2018-03-19T03:12:27.330Z,-3.76
2018-03-19T03:13:27.246Z,-3.76
2018-03-19T03:14:27.164Z,-3.82
2018-03-19T03:15:27.067Z,-3.79
2018-03-19T03:16:26.980Z,-3.79
2018-03-19T03:17:26.892Z,-3.76
2018-03-19T03:18:26.809Z,-3.67
2018-03-19T03:19:26.730Z,-3.82
2018-03-19T03:20:26.631Z,-3.78
2018-03-19T03:21:26.545Z,-3.71
2018-03-19T03:22:26.463Z,-3.78
2018-03-19T03:23:26.370Z,-3.82
2018-03-19T03:24:26.285Z,-3.71
2018-03-19T03:25:26.196Z,-3.82
2018-03-19T03:26:26.108Z,-3.81
2018-03-19T03:27:26.021Z,-3.81
2018-03-19T03:28:25.935Z,-3.76
2018-03-19T03:29:25.875Z,-3.71
2018-03-19T03:30:25.764Z,-3.76
2018-03-19T03:31:25.673Z,-3.83
2018-03-19T03:32:25.581Z,-3.85
2018-03-19T03:33:25.497Z,-3.78
2018-03-19T03:34:25.406Z,-3.82
2018-03-19T03:35:25.321Z,-3.83
2018-03-19T03:36:25.233Z,-3.85
2018-03-19T03:37:25.147Z,-3.81
2018-03-19T03:38:25.058Z,-3.81
2018-03-19T03:39:24.969Z,-3.82
2018-03-19T03:40:24.886Z,-3.83
2018-03-19T03:41:24.796Z,-3.82
2018-03-19T03:42:24.712Z,-3.90
2018-03-19T03:43:24.625Z,-3.90
2018-03-19T03:44:24.550Z,-3.86
2018-03-19T03:45:24.454Z,-3.86
2018-03-19T03:46:24.362Z,-3.79
2018-03-19T03:47:24.271Z,-3.86
2018-03-19T03:48:24.188Z,-3.83
2018-03-19T03:49:24.095Z,-3.76
2018-03-19T03:50:23.999Z,-3.79
2018-03-19T03:51:23.925Z,-3.91
2018-03-19T03:52:23.823Z,-3.81
2018-03-19T03:53:23.734Z,-3.86
2018-03-19T03:54:23.650Z,-3.81
2018-03-19T03:55:23.559Z,-3.76
2018-03-19T03:56:23.478Z,-3.81
2018-03-19T03:57:23.384Z,-3.86
2018-03-19T03:58:23.310Z,-3.94
2018-03-19T03:59:23.209Z,-3.96
2018-03-19T04:00:23.125Z,-3.96
2018-03-19T04:01:23.051Z,-3.99
2018-03-19T04:02:22.950Z,-3.86
2018-03-19T04:03:22.864Z,-3.76
2018-03-19T04:04:22.777Z,-3.82
2018-03-19T04:05:22.686Z,-3.90
2018-03-19T04:06:22.601Z,-3.96
2018-03-19T04:07:22.514Z,-3.96
2018-03-19T04:08:22.426Z,-3.93
2018-03-19T04:09:22.340Z,-3.99
2018-03-19T04:10:22.249Z,-3.90
2018-03-19T04:11:22.161Z,-3.83
2018-03-19T04:12:22.086Z,-3.76
2018-03-19T04:13:21.989Z,-3.82
2018-03-19T04:14:21.898Z,-3.81
2018-03-19T04:15:21.811Z,-3.85
2018-03-19T04:16:21.723Z,-3.96
2018-03-19T04:17:21.672Z,-3.90
2018-03-19T04:18:21.549Z,-3.90
2018-03-19T04:19:21.465Z,-3.90
2018-03-19T04:20:21.397Z,-3.94
2018-03-19T04:21:21.290Z,-3.99
2018-03-19T04:22:21.203Z,-3.91
2018-03-19T04:23:21.114Z,-3.97
2018-03-19T04:24:21.042Z,-3.96
2018-03-19T04:25:20.941Z,-3.97
2018-03-19T04:26:20.850Z,-4.04
2018-03-19T04:27:20.751Z,-4.03
2018-03-19T04:28:20.696Z,-3.99
2018-03-19T04:29:20.588Z,-4.00
2018-03-19T04:30:20.488Z,-3.96
2018-03-19T04:31:20.400Z,-3.96
2018-03-19T04:32:20.317Z,-3.96
2018-03-19T04:33:20.225Z,-3.96
2018-03-19T04:34:20.138Z,-3.99
2018-03-19T04:35:20.052Z,-3.88
2018-03-19T04:36:19.964Z,-4.06
2018-03-19T04:37:19.877Z,-4.03
2018-03-19T04:38:19.790Z,-4.04
2018-03-19T04:39:19.704Z,-3.99
2018-03-19T04:40:19.615Z,-4.03
2018-03-19T04:41:19.530Z,-4.11
2018-03-19T04:42:19.440Z,-4.15
2018-03-19T04:43:19.356Z,-4.14
2018-03-19T04:44:19.268Z,-4.14
2018-03-19T04:45:19.179Z,-4.18
2018-03-19T04:46:19.090Z,-4.15
2018-03-19T04:47:19.002Z,-4.22
2018-03-19T04:48:18.915Z,-4.17
2018-03-19T04:49:18.831Z,-4.17
2018-03-19T04:50:18.741Z,-4.11
2018-03-19T04:51:18.657Z,-4.18
2018-03-19T04:52:18.565Z,-4.12
2018-03-19T04:53:18.481Z,-4.10
2018-03-19T04:54:18.396Z,-4.14
2018-03-19T04:55:18.307Z,-4.25
2018-03-19T04:56:18.216Z,-4.24
2018-03-19T04:57:18.170Z,-4.17
2018-03-19T04:58:18.029Z,-4.14
2018-03-19T04:59:17.946Z,-4.22
2018-03-19T05:00:17.863Z,-4.10
2018-03-19T05:01:17.767Z,-4.12
2018-03-19T05:02:17.682Z,-4.15
2018-03-19T05:03:17.592Z,-4.17
2018-03-19T05:04:17.504Z,-4.10
2018-03-19T05:05:17.422Z,-4.11
2018-03-19T05:06:17.332Z,-4.22
2018-03-19T05:07:17.246Z,-4.21
2018-03-19T05:08:17.160Z,-4.28
2018-03-19T05:09:17.072Z,-4.18
2018-03-19T05:10:16.979Z,-4.14
2018-03-19T05:11:16.940Z,-4.18
2018-03-19T05:12:16.809Z,-4.18
2018-03-19T05:13:16.718Z,-4.12
2018-03-19T05:14:16.631Z,-4.15
2018-03-19T05:15:16.543Z,-4.20
2018-03-19T05:16:16.462Z,-4.18
2018-03-19T05:17:16.373Z,-4.20
2018-03-19T05:18:16.290Z,-4.18
2018-03-19T05:19:16.200Z,-4.18
2018-03-19T05:20:16.109Z,-4.22
2018-03-19T05:21:16.019Z,-4.20
2018-03-19T05:22:15.931Z,-4.15
2018-03-19T05:23:15.890Z,-4.20
2018-03-19T05:24:15.760Z,-4.21
2018-03-19T05:25:15.658Z,-4.14
2018-03-19T05:26:15.573Z,-4.14
2018-03-19T05:27:15.495Z,-4.15
2018-03-19T05:28:15.394Z,-4.22
2018-03-19T05:29:15.308Z,-4.29
2018-03-19T05:30:15.223Z,-4.24
2018-03-19T05:31:15.133Z,-4.30
2018-03-19T05:32:15.059Z,-4.15
2018-03-19T05:33:14.958Z,-4.22
2018-03-19T05:34:14.874Z,-4.25
2018-03-19T05:35:14.786Z,-4.18
2018-03-19T05:36:14.699Z,-4.21
2018-03-19T05:37:14.608Z,-4.11
2018-03-19T05:38:14.520Z,-4.24
2018-03-19T05:39:14.446Z,-4.20
2018-03-19T05:40:14.349Z,-4.30
2018-03-19T05:41:14.258Z,-4.20
2018-03-19T05:42:14.176Z,-4.20
2018-03-19T05:43:14.087Z,-4.14
2018-03-19T05:44:13.996Z,-4.15
2018-03-19T05:45:13.911Z,-4.12
2018-03-19T05:46:13.822Z,-4.14
2018-03-19T05:47:13.738Z,-4.12
2018-03-19T05:48:13.650Z,-4.12
2018-03-19T05:49:13.562Z,-4.03
2018-03-19T05:50:13.464Z,-4.00
2018-03-19T05:51:13.385Z,-4.00
2018-03-19T05:52:13.291Z,-4.00
2018-03-19T05:53:13.202Z,-3.90
2018-03-19T05:54:13.114Z,-3.85
2018-03-19T05:55:13.023Z,-3.85
2018-03-19T05:56:12.939Z,-3.79
2018-03-19T05:57:12.852Z,-3.86
2018-03-19T05:58:12.773Z,-3.67
2018-03-19T05:59:12.672Z,-3.64
2018-03-19T06:00:12.594Z,-3.56
2018-03-19T06:01:12.498Z,-3.57
2018-03-19T06:02:12.413Z,-3.52
2018-03-19T06:03:12.326Z,-3.49
2018-03-19T06:04:12.239Z,-3.56
2018-03-19T06:05:12.152Z,-3.45
2018-03-19T06:06:12.065Z,-3.48
2018-03-19T06:07:11.978Z,-3.54
2018-03-19T06:08:11.886Z,-3.54
2018-03-19T06:09:11.799Z,-3.39
2018-03-19T06:10:11.711Z,-3.36
2018-03-19T06:11:11.624Z,-3.28
2018-03-19T06:12:11.536Z,-3.07
2018-03-19T06:13:11.449Z,-3.12
2018-03-19T06:14:11.364Z,-3.10
2018-03-19T06:15:11.279Z,-3.09
2018-03-19T06:16:11.187Z,-3.07
2018-03-19T06:17:11.104Z,-3.10
2018-03-19T06:18:11.017Z,-3.09
2018-03-19T06:19:10.930Z,-3.10
2018-03-19T06:20:10.842Z,-2.97
2018-03-19T06:21:10.755Z,-2.99
2018-03-19T06:22:10.665Z,-2.94
2018-03-19T06:23:10.579Z,-3.05
2018-03-19T06:24:10.488Z,-3.14
2018-03-19T06:25:10.402Z,-3.07
2018-03-19T06:26:10.313Z,-3.10
2018-03-19T06:27:10.225Z,-2.96
2018-03-19T06:28:10.167Z,-2.89
2018-03-19T06:29:10.051Z,-2.85
2018-03-19T06:30:09.976Z,-2.82
2018-03-19T06:31:09.877Z,-2.82
2018-03-19T06:32:09.792Z,-2.56
2018-03-19T06:33:09.707Z,-2.35
2018-03-19T06:34:09.627Z,-2.24
2018-03-19T06:35:09.539Z,-2.55
2018-03-19T06:36:09.452Z,-2.60
2018-03-19T06:37:09.577Z,-2.70
2018-03-19T06:38:09.480Z,-2.35
2018-03-19T06:39:09.189Z,-2.35
2018-03-19T06:40:09.103Z,-2.23
2018-03-19T06:41:09.018Z,-2.06
2018-03-19T06:42:09.131Z,-2.16
2018-03-19T06:43:08.840Z,-2.27
2018-03-19T06:44:08.762Z,-2.21
2018-03-19T06:45:08.681Z,-2.00
2018-03-19T06:46:08.579Z,-1.98
2018-03-19T06:47:08.509Z,-1.82
2018-03-19T06:48:08.407Z,-1.45
2018-03-19T06:49:08.319Z,-1.20
2018-03-19T06:50:08.240Z,-1.15
2018-03-19T06:51:08.157Z,-1.15
2018-03-19T06:52:08.079Z,-0.82
2018-03-19T06:53:07.983Z,-0.86
2018-03-19T06:54:07.899Z,-0.58
2018-03-19T06:55:07.807Z,-0.49
2018-03-19T06:56:07.717Z,-0.39
2018-03-19T06:57:07.630Z,-0.36
2018-03-19T06:58:07.544Z,-0.43
2018-03-19T06:59:07.464Z,-0.43
2018-03-19T07:00:07.382Z,-0.05
2018-03-19T07:01:07.294Z,-0.31
2018-03-19T07:02:07.210Z,-0.75
2018-03-19T07:03:07.122Z,-0.49
2018-03-19T07:04:07.034Z,-0.47
2018-03-19T07:05:06.943Z,-0.80
2018-03-19T07:06:06.877Z,-0.54
2018-03-19T07:07:06.785Z,-0.47
2018-03-19T07:08:06.697Z,-0.43
2018-03-19T07:09:06.605Z,-0.36
2018-03-19T07:10:06.523Z,-0.64
2018-03-19T07:11:06.443Z,-0.67
2018-03-19T07:12:06.356Z,-0.46
2018-03-19T07:13:06.269Z,-0.14
2018-03-19T07:14:06.182Z,-0.18
2018-03-19T07:15:06.101Z,-0.39
2018-03-19T07:16:06.020Z,-0.52
2018-03-19T07:17:05.940Z,-0.55
2018-03-19T07:18:05.845Z,-0.47
2018-03-19T07:19:05.757Z,-0.28
2018-03-19T07:20:05.669Z,-0.07
2018-03-19T07:21:05.594Z,0.39
2018-03-19T07:22:05.507Z,0.26
2018-03-19T07:23:05.419Z,0.14
2018-03-19T07:24:05.336Z,0.11
2018-03-19T07:25:05.245Z,0.04
2018-03-19T07:26:05.174Z,0.28
2018-03-19T07:27:05.084Z,0.60
2018-03-19T07:28:04.995Z,0.55
2018-03-19T07:29:04.908Z,1.11
2018-03-19T07:30:04.833Z,1.34
2018-03-19T07:31:04.747Z,1.62
2018-03-19T07:32:04.661Z,1.62
2018-03-19T07:33:04.584Z,2.03
2018-03-19T07:34:04.500Z,1.90
2018-03-19T07:35:04.410Z,1.62
2018-03-19T07:36:04.335Z,1.72
2018-03-19T07:37:04.249Z,1.63
2018-03-19T07:38:04.163Z,1.65
2018-03-19T07:39:04.084Z,2.41
2018-03-19T07:40:03.998Z,1.84
2018-03-19T07:41:03.911Z,1.40
2018-03-19T07:42:03.833Z,1.58
2018-03-19T07:43:03.751Z,1.86
2018-03-19T07:44:03.718Z,2.36
2018-03-19T07:45:03.589Z,2.71
2018-03-19T07:46:03.499Z,2.82
2018-03-19T07:47:03.423Z,2.77
2018-03-19T07:48:03.339Z,2.95
2018-03-19T07:49:03.261Z,3.40
2018-03-19T07:50:03.173Z,3.50
2018-03-19T07:51:03.153Z,2.96
2018-03-19T07:52:03.015Z,2.67
2018-03-19T07:53:02.936Z,2.36
2018-03-19T07:54:02.852Z,2.82
2018-03-19T07:55:02.764Z,2.82
2018-03-19T07:56:02.689Z,2.77
2018-03-19T07:57:02.598Z,2.79
2018-03-19T07:58:02.526Z,2.96
2018-03-19T07:59:02.454Z,2.89
2018-03-19T08:00:02.367Z,2.31
2018-03-19T08:01:02.298Z,2.99
2018-03-19T08:02:02.240Z,2.89
2018-03-19T08:03:02.141Z,3.00
2018-03-19T08:04:02.037Z,2.36
2018-03-19T08:05:01.969Z,2.41
2018-03-19T08:06:01.875Z,1.79
2018-03-19T08:07:01.802Z,1.54
2018-03-19T08:08:01.713Z,2.42
2018-03-19T08:09:01.639Z,2.64
2018-03-19T08:10:01.554Z,2.38
2018-03-19T08:11:01.476Z,2.24
2018-03-19T08:12:01.392Z,2.49
2018-03-19T08:13:01.316Z,2.39
2018-03-19T08:14:01.241Z,2.74
2018-03-19T08:15:01.155Z,3.20
2018-03-19T08:16:01.075Z,3.54
2018-03-19T08:17:00.992Z,2.79
2018-03-19T08:18:00.913Z,2.56
2018-03-19T08:19:00.827Z,2.39
2018-03-19T08:20:00.751Z,2.39
2018-03-19T08:21:00.670Z,2.46
2018-03-19T08:22:00.592Z,2.41
2018-03-19T08:23:00.506Z,2.48
2018-03-19T08:24:00.426Z,2.57
2018-03-19T08:25:00.341Z,2.85
2018-03-19T08:26:00.265Z,2.56
2018-03-19T08:27:00.194Z,2.28
2018-03-19T08:28:00.103Z,3.00
2018-03-19T08:29:00.040Z,3.50
2018-03-19T08:29:59.944Z,3.87
2018-03-19T08:30:59.870Z,3.72
2018-03-19T08:31:59.778Z,3.31
2018-03-19T08:32:59.702Z,3.54
2018-03-19T08:33:59.628Z,3.00
2018-03-19T08:34:59.541Z,2.89
2018-03-19T08:35:59.468Z,3.42
2018-03-19T08:36:59.380Z,3.28
2018-03-19T08:37:59.306Z,3.24
2018-03-19T08:38:59.216Z,3.29
2018-03-19T08:39:59.141Z,3.55
2018-03-19T08:40:59.069Z,3.76
2018-03-19T08:41:58.978Z,3.78
2018-03-19T08:42:58.903Z,3.48
2018-03-19T08:43:58.817Z,3.17
2018-03-19T08:44:58.743Z,2.71
2018-03-19T08:45:58.667Z,3.15
2018-03-19T08:46:58.580Z,3.60
2018-03-19T08:47:58.504Z,3.88
2018-03-19T08:48:58.422Z,4.41
2018-03-19T08:49:58.346Z,4.73
2018-03-19T08:50:58.255Z,3.52
2018-03-19T08:51:58.183Z,3.32
2018-03-19T08:52:58.104Z,3.47
2018-03-19T08:53:58.029Z,3.75
2018-03-19T08:54:57.947Z,3.17
2018-03-19T08:55:57.868Z,3.78
2018-03-19T08:56:57.780Z,3.28
2018-03-19T08:57:57.709Z,2.90
2018-03-19T08:58:57.631Z,2.59
2018-03-19T08:59:57.546Z,3.31
2018-03-19T09:00:57.467Z,3.47
2018-03-19T09:01:57.380Z,3.76
2018-03-19T09:02:57.306Z,3.35
2018-03-19T09:03:57.233Z,3.76
2018-03-19T09:04:57.144Z,4.12
2018-03-19T09:05:57.068Z,3.50
2018-03-19T09:06:56.985Z,3.88
2018-03-19T09:07:56.896Z,3.88
2018-03-19T09:08:56.824Z,3.70
2018-03-19T09:09:56.737Z,3.80
2018-03-19T09:10:56.669Z,3.97
2018-03-19T09:11:56.581Z,4.15
2018-03-19T09:12:56.500Z,4.27
2018-03-19T09:13:56.420Z,4.00
2018-03-19T09:14:56.336Z,4.37
2018-03-19T09:15:56.273Z,5.07
2018-03-19T09:16:56.174Z,4.80
2018-03-19T09:17:56.096Z,4.51
2018-03-19T09:18:56.025Z,3.90
2018-03-19T09:19:55.934Z,4.00
2018-03-19T09:20:55.858Z,3.54
2018-03-19T09:21:55.772Z,3.15
2018-03-19T09:22:55.696Z,2.57
2018-03-19T09:23:55.612Z,2.85
2018-03-19T09:24:55.534Z,3.13
2018-03-19T09:25:55.459Z,3.06
2018-03-19T09:26:55.371Z,2.85
2018-03-19T09:27:55.297Z,2.42
2018-03-19T09:28:55.210Z,2.75
2018-03-19T09:29:55.135Z,2.90
2018-03-19T09:30:55.047Z,2.89
2018-03-19T09:31:54.973Z,3.14
2018-03-19T09:32:54.885Z,3.86
2018-03-19T09:33:54.812Z,3.54
2018-03-19T09:34:54.724Z,4.18
2018-03-19T09:35:54.648Z,3.70
2018-03-19T09:36:54.561Z,3.73
2018-03-19T09:37:54.493Z,3.35
2018-03-19T09:38:54.401Z,2.96
2018-03-19T09:39:54.310Z,2.61
2018-03-19T09:40:54.240Z,2.92
2018-03-19T09:41:54.153Z,3.20
2018-03-19T09:42:54.074Z,3.66
2018-03-19T09:43:53.986Z,3.90
2018-03-19T09:44:53.911Z,4.08
2018-03-19T09:45:53.827Z,4.08
2018-03-19T09:46:53.737Z,3.88
2018-03-19T09:47:53.666Z,3.97
2018-03-19T09:48:53.574Z,3.55
2018-03-19T09:49:53.499Z,3.40
2018-03-19T09:50:53.411Z,3.57
2018-03-19T09:51:53.337Z,3.28
2018-03-19T09:52:53.253Z,3.10
2018-03-19T09:53:53.161Z,2.71
2018-03-19T09:54:53.095Z,2.57
2018-03-19T09:55:52.999Z,2.63
2018-03-19T09:56:52.925Z,2.71
2018-03-19T09:57:52.842Z,2.49
2018-03-19T09:58:52.767Z,2.48
2018-03-19T09:59:52.679Z,2.35
2018-03-19T10:00:52.591Z,2.43
2018-03-19T10:01:52.512Z,2.10
2018-03-19T10:02:52.426Z,1.87
2018-03-19T10:03:52.343Z,1.80
2018-03-19T10:04:52.263Z,2.20
2018-03-19T10:05:52.176Z,2.24
2018-03-19T10:06:52.101Z,2.27
2018-03-19T10:07:52.013Z,2.24
2018-03-19T10:08:51.942Z,2.06
2018-03-19T10:09:51.852Z,2.09
2018-03-19T10:10:51.782Z,2.20
2018-03-19T10:11:51.689Z,2.09
2018-03-19T10:12:51.602Z,2.23
2018-03-19T10:13:51.514Z,2.39
2018-03-19T10:14:51.444Z,1.80
2018-03-19T10:15:51.360Z,1.73
2018-03-19T10:16:51.268Z,1.84
2018-03-19T10:17:51.188Z,2.10
2018-03-19T10:18:51.102Z,2.27
2018-03-19T10:19:51.027Z,2.46
2018-03-19T10:20:50.939Z,2.52
2018-03-19T10:21:50.866Z,2.36
2018-03-19T10:22:50.804Z,2.63
2018-03-19T10:23:50.690Z,2.39
2018-03-19T10:24:50.602Z,2.27
2018-03-19T10:25:50.528Z,2.27
2018-03-19T10:26:50.443Z,2.34
2018-03-19T10:27:50.363Z,2.14
2018-03-19T10:28:50.265Z,2.25
2018-03-19T10:29:50.191Z,2.25
2018-03-19T10:30:50.103Z,2.64
2018-03-19T10:31:50.032Z,2.71
2018-03-19T10:32:49.944Z,2.82
2018-03-19T10:33:49.855Z,3.13
2018-03-19T10:34:49.768Z,3.28
2018-03-19T10:35:49.691Z,3.39
2018-03-19T10:36:49.604Z,3.50
2018-03-19T10:37:49.517Z,3.65
2018-03-19T10:38:49.444Z,3.69
2018-03-19T10:39:49.363Z,3.65
2018-03-19T10:40:49.285Z,3.08
2018-03-19T10:41:49.193Z,3.47
2018-03-19T10:42:49.116Z,3.45
2018-03-19T10:43:49.035Z,3.10
2018-03-19T10:44:48.956Z,2.66
2018-03-19T10:45:48.880Z,2.54
2018-03-19T10:46:48.784Z,2.85
2018-03-19T10:47:48.695Z,2.85
2018-03-19T10:48:48.618Z,3.00
2018-03-19T10:49:48.560Z,2.79
2018-03-19T10:50:48.455Z,2.81
2018-03-19T10:51:48.370Z,2.85
2018-03-19T10:52:48.300Z,2.96
2018-03-19T10:53:48.211Z,2.78
2018-03-19T10:54:48.133Z,2.54
2018-03-19T10:55:48.043Z,2.93
2018-03-19T10:56:47.958Z,2.95
2018-03-19T10:57:47.885Z,2.99
2018-03-19T10:58:47.808Z,3.05
2018-03-19T10:59:47.718Z,2.87
2018-03-19T11:00:47.632Z,2.84
2018-03-19T11:01:47.561Z,2.96
2018-03-19T11:02:47.469Z,2.90
2018-03-19T11:03:47.398Z,3.24
2018-03-19T11:04:47.307Z,3.45
2018-03-19T11:05:47.224Z,4.24
2018-03-19T11:06:47.147Z,4.08
2018-03-19T11:07:47.057Z,4.00
2018-03-19T11:08:46.983Z,4.24
2018-03-19T11:09:46.895Z,4.48
2018-03-19T11:10:46.826Z,3.96
2018-03-19T11:11:46.789Z,4.16
2018-03-19T11:12:46.662Z,4.69
2018-03-19T11:13:46.583Z,4.92
2018-03-19T11:14:46.500Z,4.94
2018-03-19T11:15:46.422Z,4.51
2018-03-19T11:16:46.334Z,4.77
2018-03-19T11:17:46.259Z,5.18
2018-03-19T11:18:46.184Z,5.48
2018-03-19T11:19:46.101Z,6.21
2018-03-19T11:20:46.023Z,7.02
2018-03-19T11:21:45.963Z,7.67
2018-03-19T11:22:45.860Z,7.87
2018-03-19T11:23:45.788Z,7.97
2018-03-19T11:24:45.725Z,8.41
2018-03-19T11:25:45.638Z,8.71
2018-03-19T11:26:45.554Z,8.68
2018-03-19T11:27:45.475Z,9.01
2018-03-19T11:28:45.397Z,7.93
2018-03-19T11:29:45.322Z,8.73
2018-03-19T11:30:45.235Z,8.73
2018-03-19T11:31:45.164Z,8.98
2018-03-19T11:32:45.095Z,8.63
2018-03-19T11:33:45.014Z,8.37
2018-03-19T11:34:44.926Z,8.22
2018-03-19T11:35:44.853Z,8.73
2018-03-19T11:36:44.772Z,7.49
2018-03-19T11:37:44.699Z,7.48
2018-03-19T11:38:44.623Z,7.35
2018-03-19T11:39:44.550Z,7.24
2018-03-19T11:40:44.462Z,6.61
2018-03-19T11:41:44.391Z,6.91
2018-03-19T11:42:44.316Z,6.98
2018-03-19T11:43:44.236Z,7.05
2018-03-19T11:44:44.161Z,7.55
2018-03-19T11:45:44.091Z,8.25
2018-03-19T11:46:44.020Z,8.94
2018-03-19T11:47:43.924Z,7.98
2018-03-19T11:48:43.853Z,7.77
2018-03-19T11:49:43.782Z,7.46
2018-03-19T11:50:43.709Z,7.60
2018-03-19T11:51:43.625Z,7.92
2018-03-19T11:52:43.549Z,8.02
2018-03-19T11:53:43.476Z,6.99
2018-03-19T11:54:43.403Z,7.21
2018-03-19T11:55:43.317Z,6.81
2018-03-19T11:56:43.247Z,6.08
2018-03-19T11:57:43.169Z,6.84
2018-03-19T11:58:43.092Z,7.24
2018-03-19T11:59:43.015Z,7.28
2018-03-19T12:00:42.942Z,8.00
2018-03-19T12:01:42.868Z,7.64
2018-03-19T12:02:42.789Z,7.58
2018-03-19T12:03:42.714Z,7.89
2018-03-19T12:04:42.642Z,7.93
2018-03-19T12:05:42.556Z,7.20
2018-03-19T12:06:42.477Z,7.82
2018-03-19T12:07:42.402Z,8.68
2018-03-19T12:08:42.330Z,9.24
2018-03-19T12:09:42.256Z,8.48
2018-03-19T12:10:42.177Z,7.58
2018-03-19T12:11:42.109Z,7.30
2018-03-19T12:12:42.032Z,7.50
2018-03-19T12:13:41.956Z,6.98
2018-03-19T12:14:41.889Z,6.74
2018-03-19T12:15:41.794Z,7.12
2018-03-19T12:16:41.720Z,7.60
2018-03-19T12:17:41.644Z,7.71
2018-03-19T12:18:41.565Z,8.40
2018-03-19T12:19:41.495Z,8.02
2018-03-19T12:20:41.423Z,6.97
2018-03-19T12:21:41.351Z,7.23
2018-03-19T12:22:41.266Z,6.79
2018-03-19T12:23:41.191Z,6.40
2018-03-19T12:24:41.104Z,6.88
2018-03-19T12:25:41.028Z,7.15
2018-03-19T12:26:40.953Z,7.34
2018-03-19T12:27:40.879Z,7.37
2018-03-19T12:28:40.805Z,7.46
2018-03-19T12:29:40.729Z,7.34
2018-03-19T12:30:40.658Z,6.77
2018-03-19T12:31:40.593Z,7.45
2018-03-19T12:32:40.492Z,6.99
2018-03-19T12:33:40.417Z,7.30
2018-03-19T12:34:40.346Z,7.68
2018-03-19T12:35:40.268Z,8.05
2018-03-19T12:36:40.192Z,7.09
2018-03-19T12:37:40.121Z,6.73
2018-03-19T12:38:40.046Z,7.37
2018-03-19T12:39:39.968Z,7.16
2018-03-19T12:40:39.892Z,7.68
2018-03-19T12:41:39.806Z,6.69
2018-03-19T12:42:39.734Z,6.79
2018-03-19T12:43:39.656Z,6.99
2018-03-19T12:44:39.594Z,7.50
2018-03-19T12:45:39.508Z,6.94
2018-03-19T12:46:39.435Z,7.27
2018-03-19T12:47:39.348Z,7.64
2018-03-19T12:48:39.269Z,8.50
2018-03-19T12:49:39.194Z,8.61
2018-03-19T12:50:39.123Z,8.52
2018-03-19T12:51:39.045Z,8.41
2018-03-19T12:52:38.969Z,8.56
2018-03-19T12:53:38.894Z,8.56
2018-03-19T12:54:38.808Z,8.76
2018-03-19T12:55:38.733Z,7.79
2018-03-19T12:56:38.658Z,8.04
2018-03-19T12:57:38.595Z,7.90
2018-03-19T12:58:38.510Z,7.85
2018-03-19T12:59:38.433Z,7.60
2018-03-19T13:00:38.360Z,7.67
2018-03-19T13:01:38.300Z,8.40
2018-03-19T13:02:38.211Z,8.37